| time (UTC) | temp C | wind direction | speed KPH | gust KPH | rain 1hr cm | rain 24hr cm | rain mn cm | humidity % | barometer mb |
| 20260507183735 | 18 | 309 | 6.4 | 9.7 | 0.00 | 0.00 | 0.00 | 41 | 1010.2 |
| 20260507183232 | 17 | 139 | 0.0 | 3.2 | 0.00 | 0.00 | 0.00 | 41 | 1010.0 |
| 20260507182729 | 17 | 91 | 6.4 | 12.9 | 0.00 | 0.00 | 0.00 | 40 | 1009.9 |
| 20260507182224 | 17 | 253 | 6.4 | 14.5 | 0.00 | 0.00 | 0.00 | 47 | 1010.4 |
| 20260507181721 | 17 | 256 | 16.1 | 16.1 | 0.00 | 0.00 | 0.00 | 45 | 1010.2 |
| 20260507181218 | 16 | 12 | 0.0 | 9.7 | 0.00 | 0.00 | 0.00 | 42 | 1010.2 |
| 20260507180714 | 17 | 267 | 4.8 | 6.4 | 0.00 | 0.00 | 0.00 | 42 | 1010.3 |
| 20260507180211 | 17 | 112 | 6.4 | 6.4 | 0.00 | 0.00 | 0.00 | 39 | 1010.4 |
| 20260507175707 | 16 | 272 | 1.6 | 12.9 | 0.00 | 0.00 | 0.00 | 43 | 1010.7 |
| 20260507175204 | 16 | 243 | 16.1 | 20.9 | 0.00 | 0.00 | 0.00 | 48 | 1010.6 |
| 20260507174701 | 16 | 262 | 11.3 | 14.5 | 0.00 | 0.00 | 0.00 | 46 | 1010.9 |
| 20260507174159 | 16 | 251 | 6.4 | 14.5 | 0.00 | 0.00 | 0.00 | 45 | 1010.6 |
| 20260507173656 | 16 | 246 | 11.3 | 16.1 | 0.00 | 0.00 | 0.00 | 49 | 1011.1 |
| 20260507173153 | 16 | 34 | 3.2 | 4.8 | 0.00 | 0.00 | 0.00 | 42 | 1011.0 |
| 20260507172650 | 16 | 233 | 9.7 | 16.1 | 0.00 | 0.00 | 0.00 | 45 | 1011.2 |
| 20260507172147 | 16 | 253 | 17.7 | 22.5 | 0.00 | 0.00 | 0.00 | 44 | 1011.4 |
| 20260507171646 | 16 | 138 | 6.4 | 11.3 | 0.00 | 0.00 | 0.00 | 43 | 1011.3 |
| 20260507171144 | 16 | 126 | 11.3 | 12.9 | 0.00 | 0.00 | 0.00 | 42 | 1011.7 |
| 20260507170641 | 15 | 221 | 3.2 | 9.7 | 0.00 | 0.00 | 0.00 | 47 | 1011.6 |
| 20260507170138 | 16 | 263 | 9.7 | 17.7 | 0.00 | 0.00 | 0.00 | 46 | 1011.7 |
| 20260507165633 | 16 | 197 | 9.7 | 12.9 | 0.00 | 0.00 | 0.00 | 46 | 1011.7 |
| 20260507165130 | 15 | 260 | 14.5 | 24.1 | 0.00 | 0.00 | 0.00 | 46 | 1011.9 |
| 20260507164626 | 15 | 239 | 6.4 | 16.1 | 0.00 | 0.00 | 0.00 | 42 | 1011.9 |
| 20260507164123 | 15 | 195 | 14.5 | 22.5 | 0.00 | 0.00 | 0.00 | 45 | 1011.8 |
| 20260507163620 | 16 | 241 | 14.5 | 20.9 | 0.00 | 0.00 | 0.00 | 46 | 1011.9 |
| 20260507163119 | 15 | 258 | 12.9 | 16.1 | 0.00 | 0.00 | 0.00 | 47 | 1012.0 |
| 20260507162614 | 15 | 246 | 14.5 | 16.1 | 0.00 | 0.00 | 0.00 | 50 | 1012.0 |
| 20260507162111 | 15 | 233 | 14.5 | 20.9 | 0.00 | 0.00 | 0.00 | 46 | 1012.1 |
| 20260507161607 | 15 | 216 | 12.9 | 16.1 | 0.00 | 0.00 | 0.00 | 45 | 1012.2 |
| 20260507161103 | 14 | 215 | 12.9 | 14.5 | 0.00 | 0.00 | 0.00 | 47 | 1012.3 |
| 20260507160600 | 15 | 237 | 17.7 | 22.5 | 0.00 | 0.00 | 0.00 | 47 | 1012.5 |
| 20260507160056 | 15 | 223 | 16.1 | 17.7 | 0.00 | 0.00 | 0.00 | 48 | 1012.7 |
| 20260507155551 | 15 | 222 | 12.9 | 22.5 | 0.00 | 0.00 | 0.00 | 47 | 1012.7 |
| 20260507155049 | 15 | 231 | 17.7 | 25.7 | 0.00 | 0.00 | 0.00 | 44 | 1012.6 |
| 20260507154545 | 15 | 192 | 0.0 | 9.7 | 0.00 | 0.00 | 0.00 | 47 | 1012.4 |
| 20260507154043 | 15 | 222 | 8.0 | 11.3 | 0.00 | 0.00 | 0.00 | 50 | 1012.6 |
| 20260507153539 | 15 | 305 | 4.8 | 11.3 | 0.00 | 0.00 | 0.00 | 50 | 1012.6 |
| 20260507153035 | 14 | 241 | 11.3 | 12.9 | 0.00 | 0.00 | 0.00 | 50 | 1012.5 |
| 20260507152531 | 14 | 260 | 14.5 | 17.7 | 0.00 | 0.00 | 0.00 | 52 | 1012.6 |
| 20260507152028 | 13 | 241 | 16.1 | 24.1 | 0.00 | 0.00 | 0.00 | 50 | 1012.7 |
| 20260507151524 | 14 | 244 | 17.7 | 20.9 | 0.00 | 0.00 | 0.00 | 48 | 1012.9 |
| 20260507151021 | 14 | 207 | 8.0 | 20.9 | 0.00 | 0.00 | 0.00 | 49 | 1012.9 |
| 20260507150518 | 13 | 252 | 11.3 | 14.5 | 0.00 | 0.00 | 0.00 | 52 | 1013.0 |
| 20260507150015 | 14 | 253 | 11.3 | 17.7 | 0.00 | 0.00 | 0.00 | 51 | 1013.0 |
| 20260507145510 | 13 | 247 | 19.3 | 22.5 | 0.00 | 0.00 | 0.00 | 51 | 1013.4 |
| 20260507145008 | 13 | 247 | 12.9 | 20.9 | 0.00 | 0.00 | 0.00 | 52 | 1013.3 |
| 20260507144504 | 13 | 253 | 19.3 | 25.7 | 0.00 | 0.00 | 0.00 | 52 | 1013.6 |
| 20260507144001 | 13 | 254 | 8.0 | 12.9 | 0.00 | 0.00 | 0.00 | 54 | 1013.4 |
| 20260507143459 | 13 | 255 | 4.8 | 16.1 | 0.00 | 0.00 | 0.00 | 54 | 1013.6 |
| 20260507142955 | 13 | 192 | 6.4 | 14.5 | 0.00 | 0.00 | 0.00 | 49 | 1013.6 |
| 20260507142451 | 13 | 236 | 12.9 | 20.9 | 0.00 | 0.00 | 0.00 | 51 | 1013.5 |
| 20260507141948 | 13 | 241 | 6.4 | 14.5 | 0.00 | 0.00 | 0.00 | 50 | 1013.6 |
| 20260507141444 | 12 | 218 | 8.0 | 11.3 | 0.00 | 0.00 | 0.00 | 51 | 1013.8 |
| 20260507140941 | 12 | 217 | 6.4 | 16.1 | 0.00 | 0.00 | 0.00 | 51 | 1013.9 |
| 20260507140438 | 12 | 232 | 11.3 | 14.5 | 0.00 | 0.00 | 0.00 | 52 | 1013.8 |
| 20260507135936 | 12 | 231 | 12.9 | 17.7 | 0.00 | 0.00 | 0.00 | 52 | 1014.0 |
| 20260507135432 | 12 | 179 | 9.7 | 22.5 | 0.00 | 0.00 | 0.00 | 53 | 1013.8 |
| 20260507134930 | 12 | 214 | 3.2 | 12.9 | 0.00 | 0.00 | 0.00 | 53 | 1014.1 |
| 20260507134426 | 12 | 214 | 16.1 | 17.7 | 0.00 | 0.00 | 0.00 | 54 | 1014.2 |
| 20260507133922 | 12 | 186 | 11.3 | 20.9 | 0.00 | 0.00 | 0.00 | 51 | 1014.1 |
| 20260507133418 | 12 | 233 | 11.3 | 17.7 | 0.00 | 0.00 | 0.00 | 55 | 1014.2 |
| 20260507132911 | 12 | 218 | 11.3 | 12.9 | 0.00 | 0.00 | 0.00 | 54 | 1014.1 |
| 20260507132407 | 12 | 212 | 17.7 | 22.5 | 0.00 | 0.00 | 0.00 | 54 | 1014.3 |
| 20260507131905 | 12 | 258 | 16.1 | 24.1 | 0.00 | 0.00 | 0.00 | 53 | 1014.2 |
| 20260507131400 | 11 | 227 | 11.3 | 22.5 | 0.00 | 0.00 | 0.00 | 57 | 1014.1 |
| 20260507130857 | 11 | 238 | 14.5 | 17.7 | 0.00 | 0.00 | 0.00 | 57 | 1013.9 |
| 20260507130354 | 11 | 244 | 11.3 | 12.9 | 0.00 | 0.00 | 0.00 | 59 | 1014.3 |
| 20260507125853 | 11 | 192 | 6.4 | 11.3 | 0.00 | 0.00 | 0.00 | 58 | 1014.3 |
| 20260507125350 | 11 | 218 | 12.9 | 17.7 | 0.00 | 0.00 | 0.00 | 56 | 1014.1 |
| 20260507124848 | 11 | 222 | 4.8 | 11.3 | 0.00 | 0.00 | 0.00 | 59 | 1014.0 |
| 20260507124343 | 11 | 213 | 8.0 | 12.9 | 0.00 | 0.00 | 0.00 | 58 | 1014.1 |
| 20260507123842 | 11 | 211 | 9.7 | 16.1 | 0.00 | 0.00 | 0.00 | 57 | 1014.1 |
| 20260507123339 | 11 | 247 | 11.3 | 16.1 | 0.00 | 0.00 | 0.00 | 59 | 1014.0 |
| 20260507122836 | 11 | 247 | 8.0 | 11.3 | 0.00 | 0.00 | 0.00 | 60 | 1014.1 |
| 20260507122331 | 11 | 215 | 6.4 | 9.7 | 0.00 | 0.00 | 0.00 | 61 | 1014.1 |
| 20260507121827 | 11 | 235 | 3.2 | 11.3 | 0.00 | 0.00 | 0.00 | 60 | 1014.0 |
| 20260507121323 | 11 | 225 | 3.2 | 6.4 | 0.00 | 0.00 | 0.00 | 63 | 1014.1 |
| 20260507120820 | 11 | 229 | 8.0 | 9.7 | 0.00 | 0.00 | 0.00 | 64 | 1013.8 |
| 20260507120316 | 11 | 213 | 8.0 | 11.3 | 0.00 | 0.00 | 0.00 | 63 | 1013.7 |
| 20260507115812 | 11 | 230 | 3.2 | 6.4 | 0.00 | 0.00 | 0.00 | 65 | 1013.9 |
| 20260507115308 | 11 | 205 | 4.8 | 6.4 | 0.00 | 0.00 | 0.00 | 65 | 1013.8 |
| 20260507114804 | 11 | 222 | 4.8 | 4.8 | 0.00 | 0.00 | 0.00 | 69 | 1013.8 |
| 20260507114301 | 11 | 222 | 4.8 | 4.8 | 0.00 | 0.00 | 0.00 | 66 | 1013.7 |
| 20260507113800 | 10 | 218 | 4.8 | 6.4 | 0.00 | 0.00 | 0.00 | 66 | 1013.7 |
| 20260507113256 | 10 | 230 | 3.2 | 9.7 | 0.00 | 0.00 | 0.00 | 68 | 1013.7 |
| 20260507112754 | 10 | 233 | 6.4 | 6.4 | 0.00 | 0.00 | 0.00 | 67 | 1013.7 |
| 20260507112251 | 10 | 246 | 6.4 | 6.4 | 0.00 | 0.00 | 0.00 | 67 | 1013.6 |
| 20260507111749 | 10 | 236 | 3.2 | 4.8 | 0.00 | 0.00 | 0.00 | 67 | 1014.0 |
| 20260507111244 | 10 | 189 | 1.6 | 3.2 | 0.00 | 0.00 | 0.00 | 67 | 1013.8 |
| 20260507110740 | 10 | 218 | 3.2 | 3.2 | 0.00 | 0.00 | 0.00 | 65 | 1013.8 |
| 20260507110237 | 10 | 231 | 1.6 | 3.2 | 0.00 | 0.00 | 0.00 | 66 | 1013.9 |
| 20260507105734 | 10 | 248 | 1.6 | 3.2 | 0.00 | 0.00 | 0.00 | 67 | 1013.6 |
| 20260507105230 | 10 | 215 | 1.6 | 1.6 | 0.00 | 0.00 | 0.00 | 66 | 1013.9 |
| 20260507104727 | 10 | 264 | 1.6 | 3.2 | 0.00 | 0.00 | 0.00 | 67 | 1013.4 |
| 20260507104224 | 10 | 258 | 4.8 | 4.8 | 0.00 | 0.00 | 0.00 | 65 | 1013.3 |
| 20260507103720 | 10 | 223 | 3.2 | 9.7 | 0.00 | 0.00 | 0.00 | 67 | 1013.4 |
| 20260507103216 | 10 | 208 | 4.8 | 6.4 | 0.00 | 0.00 | 0.00 | 67 | 1013.3 |
| 20260507102713 | 11 | 238 | 4.8 | 9.7 | 0.00 | 0.00 | 0.00 | 67 | 1013.1 |
| 20260507102209 | 10 | 254 | 6.4 | 6.4 | 0.00 | 0.00 | 0.00 | 69 | 1013.0 |
| 20260507101705 | 11 | 231 | 6.4 | 9.7 | 0.00 | 0.00 | 0.00 | 67 | 1013.0 |
| 20260507101201 | 11 | 210 | 8.0 | 11.3 | 0.00 | 0.00 | 0.00 | 67 | 1013.2 |
| 20260507100658 | 11 | 233 | 8.0 | 12.9 | 0.00 | 0.00 | 0.00 | 68 | 1012.9 |
| 20260507100157 | 11 | 231 | 8.0 | 9.7 | 0.00 | 0.00 | 0.00 | 69 | 1013.1 |
| 20260507095654 | 11 | 235 | 6.4 | 9.7 | 0.00 | 0.00 | 0.00 | 69 | 1012.8 |
| 20260507095151 | 11 | 244 | 4.8 | 6.4 | 0.00 | 0.00 | 0.00 | 69 | 1012.8 |
| 20260507094647 | 11 | 231 | 4.8 | 6.4 | 0.00 | 0.00 | 0.00 | 69 | 1012.8 |
| 20260507094144 | 11 | 237 | 3.2 | 6.4 | 0.00 | 0.00 | 0.00 | 70 | 1012.9 |
| 20260507093641 | 11 | 231 | 6.4 | 12.9 | 0.00 | 0.00 | 0.00 | 68 | 1012.5 |
| 20260507093141 | 11 | 234 | 8.0 | 9.7 | 0.00 | 0.00 | 0.00 | 69 | 1012.4 |
| 20260507092636 | 11 | 248 | 6.4 | 12.9 | 0.00 | 0.00 | 0.00 | 70 | 1012.8 |
| 20260507092133 | 11 | 247 | 4.8 | 11.3 | 0.00 | 0.00 | 0.00 | 71 | 1012.7 |
| 20260507091629 | 11 | 259 | 4.8 | 12.9 | 0.00 | 0.00 | 0.00 | 72 | 1012.8 |
| 20260507091125 | 11 | 259 | 4.8 | 12.9 | 0.00 | 0.00 | 0.00 | 72 | 1012.8 |
| 20260507090621 | 11 | 239 | 4.8 | 6.4 | 0.00 | 0.00 | 0.00 | 74 | 1012.9 |
| 20260507090119 | 11 | 249 | 6.4 | 12.9 | 0.00 | 0.00 | 0.00 | 73 | 1012.8 |
| 20260507085615 | 11 | 211 | 9.7 | 12.9 | 0.00 | 0.00 | 0.00 | 72 | 1012.9 |
| 20260507085112 | 11 | 218 | 11.3 | 12.9 | 0.00 | 0.00 | 0.00 | 72 | 1012.9 |
| 20260507084609 | 11 | 242 | 6.4 | 6.4 | 0.00 | 0.00 | 0.00 | 74 | 1013.1 |
| 20260507084106 | 11 | 247 | 9.7 | 12.9 | 0.00 | 0.00 | 0.00 | 73 | 1012.8 |
| 20260507083602 | 11 | 223 | 6.4 | 9.7 | 0.00 | 0.00 | 0.00 | 73 | 1012.7 |
| 20260507083100 | 11 | 230 | 4.8 | 11.3 | 0.00 | 0.00 | 0.00 | 72 | 1012.9 |
| 20260507082555 | 11 | 221 | 6.4 | 9.7 | 0.00 | 0.00 | 0.00 | 73 | 1012.7 |
| 20260507082052 | 11 | 227 | 8.0 | 12.9 | 0.00 | 0.00 | 0.00 | 71 | 1012.5 |
| 20260507081548 | 11 | 214 | 6.4 | 11.3 | 0.00 | 0.00 | 0.00 | 72 | 1012.6 |
| 20260507081046 | 11 | 210 | 6.4 | 11.3 | 0.00 | 0.00 | 0.00 | 73 | 1012.5 |
| 20260507080542 | 11 | 216 | 6.4 | 14.5 | 0.00 | 0.00 | 0.00 | 73 | 1012.4 |
| 20260507080038 | 11 | 230 | 9.7 | 12.9 | 0.00 | 0.00 | 0.00 | 74 | 1012.4 |
| 20260507075533 | 11 | 242 | 9.7 | 12.9 | 0.00 | 0.00 | 0.00 | 75 | 1012.3 |
| 20260507075030 | 11 | 249 | 9.7 | 12.9 | 0.00 | 0.00 | 0.00 | 74 | 1012.1 |
| 20260507074526 | 11 | 212 | 8.0 | 12.9 | 0.00 | 0.00 | 0.00 | 75 | 1012.1 |
| 20260507074025 | 11 | 250 | 8.0 | 12.9 | 0.00 | 0.00 | 0.00 | 76 | 1012.1 |
| 20260507073521 | 11 | 223 | 12.9 | 16.1 | 0.00 | 0.00 | 0.00 | 76 | 1011.9 |
| 20260507073017 | 12 | 235 | 16.1 | 20.9 | 0.00 | 0.00 | 0.00 | 75 | 1012.0 |
| 20260507072515 | 12 | 228 | 9.7 | 12.9 | 0.00 | 0.00 | 0.00 | 76 | 1012.1 |
| 20260507072012 | 12 | 230 | 11.3 | 12.9 | 0.00 | 0.00 | 0.00 | 75 | 1011.9 |
| 20260507071509 | 12 | 222 | 9.7 | 17.7 | 0.00 | 0.00 | 0.00 | 76 | 1011.9 |
| 20260507071006 | 12 | 199 | 8.0 | 16.1 | 0.00 | 0.00 | 0.00 | 76 | 1012.1 |
| 20260507070503 | 12 | 229 | 11.3 | 12.9 | 0.00 | 0.00 | 0.00 | 76 | 1012.2 |
| 20260507070000 | 12 | 239 | 11.3 | 12.9 | 0.00 | 0.00 | 0.00 | 76 | 1012.2 |
| 20260507065456 | 12 | 236 | 14.5 | 17.7 | 0.00 | 0.00 | 0.00 | 76 | 1012.1 |
| 20260507064953 | 12 | 256 | 16.1 | 17.7 | 0.00 | 0.00 | 0.00 | 76 | 1012.3 |
| 20260507064452 | 12 | 246 | 9.7 | 12.9 | 0.00 | 0.00 | 0.00 | 78 | 1012.5 |
| 20260507063949 | 12 | 203 | 9.7 | 11.3 | 0.00 | 0.00 | 0.00 | 76 | 1012.6 |
| 20260507063446 | 12 | 212 | 8.0 | 9.7 | 0.00 | 0.00 | 0.00 | 78 | 1012.6 |
| 20260507062943 | 12 | 247 | 6.4 | 9.7 | 0.00 | 0.00 | 0.00 | 80 | 1012.6 |
| 20260507062440 | 12 | 246 | 9.7 | 9.7 | 0.00 | 0.00 | 0.00 | 80 | 1012.5 |
| 20260507061937 | 12 | 242 | 6.4 | 11.3 | 0.00 | 0.00 | 0.00 | 78 | 1012.6 |
| 20260507061435 | 12 | 266 | 4.8 | 9.7 | 0.00 | 0.00 | 0.00 | 79 | 1012.8 |
| 20260507060934 | 12 | 210 | 4.8 | 11.3 | 0.00 | 0.00 | 0.00 | 78 | 1012.8 |
| 20260507060430 | 12 | 184 | 6.4 | 9.7 | 0.00 | 0.00 | 0.00 | 78 | 1012.9 |
| 20260507055927 | 12 | 224 | 6.4 | 11.3 | 0.00 | 0.00 | 0.00 | 77 | 1013.1 |
| 20260507055422 | 12 | 195 | 3.2 | 11.3 | 0.00 | 0.00 | 0.00 | 78 | 1012.9 |
| 20260507054919 | 12 | 188 | 4.8 | 9.7 | 0.00 | 0.00 | 0.00 | 78 | 1012.8 |
| 20260507054415 | 12 | 179 | 11.3 | 12.9 | 0.00 | 0.00 | 0.00 | 77 | 1012.6 |
| 20260507053913 | 12 | 213 | 6.4 | 6.4 | 0.00 | 0.00 | 0.00 | 79 | 1012.6 |
| 20260507053410 | 12 | 243 | 8.0 | 12.9 | 0.00 | 0.00 | 0.00 | 79 | 1012.4 |
| 20260507052909 | 12 | 241 | 11.3 | 24.1 | 0.00 | 0.00 | 0.00 | 78 | 1012.3 |
| 20260507052406 | 12 | 214 | 9.7 | 12.9 | 0.00 | 0.00 | 0.00 | 79 | 1012.3 |
| 20260507051903 | 12 | 240 | 11.3 | 14.5 | 0.00 | 0.00 | 0.00 | 80 | 1012.3 |
| 20260507051400 | 12 | 245 | 12.9 | 14.5 | 0.00 | 0.00 | 0.00 | 79 | 1012.1 |
| 20260507050857 | 12 | 189 | 4.8 | 14.5 | 0.00 | 0.00 | 0.00 | 81 | 1012.5 |
| 20260507050353 | 12 | 221 | 4.8 | 12.9 | 0.00 | 0.00 | 0.00 | 82 | 1012.5 |
| 20260507045850 | 12 | 220 | 6.4 | 11.3 | 0.00 | 0.00 | 0.00 | 81 | 1012.2 |
| 20260507045347 | 12 | 242 | 9.7 | 17.7 | 0.00 | 0.00 | 0.00 | 82 | 1012.4 |
| 20260507044845 | 12 | 225 | 8.0 | 11.3 | 0.00 | 0.00 | 0.00 | 82 | 1012.2 |
| 20260507044341 | 12 | 241 | 6.4 | 12.9 | 0.00 | 0.00 | 0.00 | 82 | 1012.4 |
| 20260507043836 | 12 | 250 | 12.9 | 14.5 | 0.00 | 0.00 | 0.00 | 82 | 1012.4 |
| 20260507043333 | 12 | 201 | 9.7 | 16.1 | 0.00 | 0.00 | 0.00 | 82 | 1012.2 |
| 20260507042830 | 12 | 232 | 12.9 | 16.1 | 0.00 | 0.00 | 0.00 | 83 | 1011.7 |
| 20260507042325 | 12 | 238 | 9.7 | 12.9 | 0.00 | 0.00 | 0.00 | 83 | 1011.9 |
| 20260507041823 | 12 | 226 | 6.4 | 9.7 | 0.00 | 0.00 | 0.00 | 82 | 1012.0 |
| 20260507041319 | 12 | 220 | 3.2 | 16.1 | 0.00 | 0.00 | 0.00 | 83 | 1012.4 |
| 20260507040816 | 12 | 182 | 8.0 | 14.5 | 0.00 | 0.00 | 0.00 | 83 | 1012.3 |
| 20260507040312 | 12 | 204 | 6.4 | 12.9 | 0.00 | 0.00 | 0.00 | 83 | 1012.4 |
| 20260507035808 | 13 | 217 | 8.0 | 12.9 | 0.00 | 0.28 | 0.28 | 82 | 1012.7 |
| 20260507035306 | 12 | 226 | 9.7 | 11.3 | 0.00 | 0.28 | 0.28 | 83 | 1012.5 |
| 20260507034802 | 12 | 218 | 3.2 | 9.7 | 0.00 | 0.28 | 0.28 | 84 | 1012.4 |
| 20260507034258 | 12 | 244 | 3.2 | 6.4 | 0.00 | 0.28 | 0.28 | 84 | 1012.4 |
| 20260507033757 | 12 | 222 | 6.4 | 12.9 | 0.00 | 0.28 | 0.28 | 83 | 1012.3 |
| 20260507033254 | 12 | 223 | 9.7 | 11.3 | 0.00 | 0.28 | 0.28 | 84 | 1012.2 |
| 20260507032751 | 13 | 234 | 11.3 | 16.1 | 0.00 | 0.28 | 0.28 | 84 | 1012.3 |
| 20260507032247 | 13 | 205 | 11.3 | 17.7 | 0.00 | 0.28 | 0.28 | 85 | 1012.3 |
| 20260507031743 | 13 | 238 | 12.9 | 16.1 | 0.00 | 0.28 | 0.28 | 85 | 1012.6 |
| 20260507031240 | 13 | 244 | 14.5 | 16.1 | 0.00 | 0.28 | 0.28 | 86 | 1012.5 |
| 20260507030737 | 13 | 245 | 12.9 | 17.7 | 0.00 | 0.28 | 0.28 | 86 | 1012.3 |
| 20260507030235 | 13 | 228 | 11.3 | 16.1 | 0.00 | 0.28 | 0.28 | 86 | 1012.5 |
| 20260507025732 | 13 | 226 | 16.1 | 17.7 | 0.00 | 0.28 | 0.28 | 85 | 1012.5 |
| 20260507025228 | 13 | 229 | 14.5 | 22.5 | 0.00 | 0.28 | 0.28 | 85 | 1012.3 |
| 20260507024727 | 13 | 234 | 9.7 | 11.3 | 0.00 | 0.28 | 0.28 | 86 | 1012.2 |
| 20260507024224 | 13 | 246 | 9.7 | 12.9 | 0.00 | 0.28 | 0.28 | 85 | 1011.8 |
| 20260507023719 | 13 | 233 | 12.9 | 17.7 | 0.00 | 0.28 | 0.28 | 84 | 1011.9 |
| 20260507023216 | 13 | 260 | 8.0 | 17.7 | 0.00 | 0.28 | 0.28 | 84 | 1011.9 |
| 20260507022714 | 13 | 241 | 11.3 | 14.5 | 0.00 | 0.28 | 0.28 | 84 | 1012.0 |
| 20260507022209 | 13 | 223 | 12.9 | 17.7 | 0.00 | 0.28 | 0.28 | 83 | 1012.0 |
| 20260507021706 | 14 | 228 | 16.1 | 17.7 | 0.00 | 0.28 | 0.28 | 83 | 1011.8 |
| 20260507021201 | 14 | 250 | 14.5 | 16.1 | 0.00 | 0.28 | 0.28 | 83 | 1011.7 |
| 20260507020700 | 14 | 246 | 9.7 | 16.1 | 0.00 | 0.28 | 0.28 | 83 | 1011.9 |
| 20260507020156 | 15 | 231 | 9.7 | 11.3 | 0.00 | 0.28 | 0.28 | 83 | 1011.8 |
| 20260507015654 | 15 | 235 | 6.4 | 11.3 | 0.00 | 0.28 | 0.28 | 81 | 1011.7 |
| 20260507015151 | 15 | 221 | 4.8 | 9.7 | 0.00 | 0.28 | 0.28 | 81 | 1011.4 |
| 20260507014647 | 15 | 236 | 4.8 | 9.7 | 0.00 | 0.28 | 0.28 | 81 | 1011.6 |
| 20260507014143 | 15 | 248 | 4.8 | 12.9 | 0.00 | 0.28 | 0.28 | 81 | 1011.6 |
| 20260507013641 | 15 | 249 | 12.9 | 17.7 | 0.00 | 0.28 | 0.28 | 81 | 1011.8 |
| 20260507013137 | 15 | 249 | 14.5 | 17.7 | 0.00 | 0.28 | 0.28 | 81 | 1011.8 |
| 20260507012635 | 15 | 222 | 9.7 | 14.5 | 0.00 | 0.28 | 0.28 | 83 | 1011.6 |
| 20260507012130 | 15 | 212 | 8.0 | 11.3 | 0.00 | 0.28 | 0.28 | 82 | 1011.2 |
| 20260507011629 | 15 | 202 | 4.8 | 9.7 | 0.00 | 0.28 | 0.28 | 82 | 1011.3 |
| 20260507011125 | 15 | 227 | 8.0 | 11.3 | 0.00 | 0.28 | 0.28 | 82 | 1011.2 |
| 20260507010620 | 16 | 251 | 6.4 | 11.3 | 0.00 | 0.28 | 0.28 | 82 | 1011.3 |
| 20260507010115 | 16 | 224 | 8.0 | 9.7 | 0.00 | 0.28 | 0.28 | 84 | 1011.1 |
| 20260507005613 | 16 | 251 | 9.7 | 11.3 | 0.00 | 0.28 | 0.28 | 83 | 1011.6 |
| 20260507005109 | 16 | 245 | 9.7 | 11.3 | 0.00 | 0.28 | 0.28 | 82 | 1011.6 |
| 20260507004606 | 16 | 212 | 9.7 | 14.5 | 0.00 | 0.28 | 0.28 | 81 | 1011.6 |
| 20260507004104 | 16 | 220 | 9.7 | 12.9 | 0.00 | 0.28 | 0.28 | 83 | 1011.5 |
| 20260507003559 | 16 | 228 | 6.4 | 11.3 | 0.00 | 0.28 | 0.28 | 84 | 1011.6 |
| 20260507003055 | 16 | 258 | 3.2 | 9.7 | 0.00 | 0.28 | 0.28 | 86 | 1011.4 |
| 20260507002551 | 16 | 235 | 3.2 | 6.4 | 0.00 | 0.28 | 0.28 | 86 | 1011.2 |
| 20260507002047 | 16 | 269 | 6.4 | 6.4 | 0.00 | 0.28 | 0.28 | 86 | 1011.2 |
| 20260507001544 | 16 | 203 | 6.4 | 9.7 | 0.00 | 0.28 | 0.28 | 87 | 1011.3 |
| 20260507001042 | 16 | 182 | 8.0 | 11.3 | 0.00 | 0.28 | 0.28 | 87 | 1011.0 |
| 20260507000538 | 17 | 221 | 6.4 | 9.7 | 0.00 | 0.28 | 0.28 | 89 | 1011.0 |
| 20260507000033 | 17 | 188 | 8.0 | 11.3 | 0.00 | 0.28 | 0.28 | 90 | 1011.1 |
| 20260506235531 | 17 | 219 | 3.2 | 4.8 | 0.00 | 0.28 | 0.28 | 90 | 1010.7 |
| 20260506235026 | 17 | 233 | 4.8 | 4.8 | 0.00 | 0.28 | 0.28 | 90 | 1010.4 |
| 20260506234525 | 17 | 209 | 6.4 | 6.4 | 0.00 | 0.28 | 0.28 | 88 | 1010.5 |
| 20260506234021 | 17 | 185 | 6.4 | 6.4 | 0.00 | 0.28 | 0.28 | 88 | 1010.5 |
| 20260506233518 | 17 | 243 | 4.8 | 6.4 | 0.00 | 0.28 | 0.28 | 88 | 1010.2 |
| 20260506233015 | 17 | 250 | 1.6 | 4.8 | 0.00 | 0.28 | 0.28 | 87 | 1009.9 |
| 20260506232511 | 17 | 232 | 4.8 | 6.4 | 0.00 | 0.28 | 0.28 | 85 | 1009.9 |
| 20260506232007 | 17 | 209 | 6.4 | 9.7 | 0.00 | 0.28 | 0.28 | 85 | 1009.9 |
| 20260506231504 | 18 | 198 | 9.7 | 11.3 | 0.00 | 0.28 | 0.28 | 84 | 1009.8 |
| 20260506231002 | 18 | 236 | 4.8 | 9.7 | 0.00 | 0.28 | 0.28 | 84 | 1009.7 |
| 20260506230458 | 18 | 163 | 9.7 | 12.9 | 0.00 | 0.28 | 0.28 | 83 | 1009.7 |
| 20260506225955 | 18 | 187 | 4.8 | 6.4 | 0.00 | 0.28 | 0.28 | 84 | 1009.8 |
| 20260506225452 | 18 | 113 | 8.0 | 11.3 | 0.00 | 0.28 | 0.28 | 84 | 1009.9 |
| 20260506224948 | 18 | 153 | 9.7 | 12.9 | 0.00 | 0.28 | 0.28 | 84 | 1009.7 |
| 20260506224446 | 18 | 194 | 9.7 | 17.7 | 0.00 | 0.28 | 0.28 | 85 | 1010.0 |
| 20260506223942 | 18 | 235 | 9.7 | 14.5 | 0.00 | 0.28 | 0.28 | 83 | 1009.8 |
| 20260506223438 | 18 | 206 | 8.0 | 14.5 | 0.00 | 0.28 | 0.28 | 85 | 1009.9 |
| 20260506222935 | 18 | 195 | 8.0 | 17.7 | 0.00 | 0.28 | 0.28 | 85 | 1009.8 |
| 20260506222431 | 18 | 245 | 19.3 | 24.1 | 0.00 | 0.28 | 0.28 | 87 | 1009.7 |
| 20260506221929 | 18 | 235 | 11.3 | 14.5 | 0.00 | 0.28 | 0.28 | 88 | 1009.7 |
| 20260506221426 | 18 | 182 | 8.0 | 11.3 | 0.00 | 0.28 | 0.28 | 90 | 1009.5 |
| 20260506220924 | 19 | 237 | 6.4 | 12.9 | 0.00 | 0.28 | 0.28 | 91 | 1009.4 |
| 20260506220419 | 18 | 195 | 4.8 | 11.3 | 0.00 | 0.28 | 0.28 | 92 | 1009.4 |
| 20260506215915 | 19 | 236 | 14.5 | 16.1 | 0.00 | 0.28 | 0.28 | 92 | 1009.1 |
| 20260506215412 | 19 | 246 | 9.7 | 14.5 | 0.00 | 0.28 | 0.28 | 92 | 1009.1 |
| 20260506214908 | 20 | 230 | 6.4 | 9.7 | 0.00 | 0.28 | 0.28 | 88 | 1009.3 |
| 20260506214405 | 20 | 126 | 6.4 | 9.7 | 0.00 | 0.28 | 0.28 | 84 | 1009.1 |
| 20260506213902 | 20 | 247 | 1.6 | 3.2 | 0.00 | 0.28 | 0.28 | 87 | 1009.1 |
| 20260506213400 | 19 | 255 | 1.6 | 1.6 | 0.00 | 0.28 | 0.28 | 89 | 1009.1 |
| 20260506212857 | 20 | 236 | 1.6 | 3.2 | 0.00 | 0.28 | 0.28 | 89 | 1008.9 |
| 20260506212353 | 20 | 244 | 0.0 | 0.0 | 0.00 | 0.28 | 0.28 | 88 | 1008.9 |
| 20260506211847 | 20 | 307 | 0.0 | 0.0 | 0.00 | 0.28 | 0.28 | 88 | 1008.9 |
| 20260506211344 | 19 | 62 | 0.0 | 0.0 | 0.00 | 0.28 | 0.28 | 88 | 1008.8 |
| 20260506210841 | 19 | 44 | 1.6 | 4.8 | 0.00 | 0.28 | 0.28 | 89 | 1008.5 |
| 20260506210338 | 19 | 13 | 3.2 | 9.7 | 0.00 | 0.28 | 0.28 | 88 | 1008.5 |
| 20260506205836 | 20 | 56 | 6.4 | 9.7 | 0.00 | 0.28 | 0.28 | 88 | 1008.5 |
| 20260506205331 | 19 | 13 | 4.8 | 6.4 | 0.00 | 0.28 | 0.28 | 88 | 1008.5 |
| 20260506204828 | 19 | 321 | 3.2 | 4.8 | 0.00 | 0.28 | 0.28 | 88 | 1008.4 |
| 20260506204326 | 19 | 302 | 1.6 | 3.2 | 0.00 | 0.28 | 0.28 | 90 | 1008.5 |
| 20260506203823 | 19 | 304 | 3.2 | 4.8 | 0.00 | 0.28 | 0.28 | 90 | 1008.4 |
| 20260506203320 | 18 | 329 | 1.6 | 9.7 | 0.00 | 0.28 | 0.28 | 91 | 1008.2 |
| 20260506202817 | 18 | 318 | 3.2 | 4.8 | 0.00 | 0.28 | 0.28 | 92 | 1008.4 |
| 20260506202314 | 18 | 3 | 1.6 | 4.8 | 0.00 | 0.28 | 0.28 | 91 | 1008.3 |
| 20260506201810 | 18 | 355 | 0.0 | 3.2 | 0.00 | 0.28 | 0.28 | 92 | 1008.3 |
| 20260506201308 | 18 | 332 | 1.6 | 3.2 | 0.00 | 0.28 | 0.28 | 92 | 1008.4 |
| 20260506200805 | 18 | 280 | 1.6 | 3.2 | 0.00 | 0.28 | 0.28 | 93 | 1008.4 |
| 20260506200301 | 18 | 326 | 0.0 | 1.6 | 0.00 | 0.28 | 0.28 | 93 | 1008.3 |
| 20260506195757 | 18 | 315 | 0.0 | 3.2 | 0.00 | 0.28 | 0.28 | 93 | 1008.3 |
| 20260506195254 | 18 | 0 | 1.6 | 4.8 | 0.00 | 0.28 | 0.28 | 93 | 1008.1 |
| 20260506194751 | 18 | 26 | 3.2 | 6.4 | 0.00 | 0.28 | 0.28 | 93 | 1008.5 |
| 20260506194247 | 18 | 344 | 3.2 | 6.4 | 0.00 | 0.28 | 0.28 | 92 | 1008.2 |
| 20260506193745 | 18 | 276 | 1.6 | 3.2 | 0.00 | 0.28 | 0.28 | 90 | 1008.4 |
| 20260506193242 | 18 | 324 | 1.6 | 4.8 | 0.00 | 0.28 | 0.28 | 90 | 1008.3 |
| 20260506192738 | 18 | 317 | 3.2 | 3.2 | 0.00 | 0.28 | 0.28 | 89 | 1008.5 |
| 20260506192235 | 18 | 280 | 1.6 | 3.2 | 0.00 | 0.28 | 0.28 | 89 | 1008.5 |
| 20260506191732 | 19 | 257 | 3.2 | 3.2 | 0.00 | 0.28 | 0.28 | 89 | 1008.7 |
| 20260506191228 | 19 | 265 | 4.8 | 4.8 | 0.00 | 0.28 | 0.28 | 88 | 1008.6 |
| 20260506190725 | 19 | 243 | 3.2 | 4.8 | 0.00 | 0.28 | 0.28 | 88 | 1008.6 |
| 20260506190222 | 18 | 269 | 4.8 | 6.4 | 0.00 | 0.28 | 0.28 | 90 | 1008.6 |
| 20260506185719 | 18 | 268 | 3.2 | 6.4 | 0.00 | 0.28 | 0.28 | 92 | 1008.5 |
| 20260506185215 | 18 | 215 | 6.4 | 9.7 | 0.00 | 0.28 | 0.28 | 91 | 1008.6 |
| 20260506184713 | 19 | 245 | 6.4 | 6.4 | 0.00 | 0.28 | 0.28 | 90 | 1008.5 |
| 20260506184210 | 19 | 252 | 3.2 | 4.8 | 0.00 | 0.28 | 0.28 | 88 | 1008.6 |